Home > Products > Valid Products > MTR

000
SAUS42 KCHS 271501 COR
MTRNBC
METAR KNBC 271456Z 22016G22KT 10SM BKN018 21/16 A2974 RMK AO2 SLP071
T02060156 50001





000
SAUS42 KCHS 271401 COR
MTRNBC
METAR KNBC 271356Z 23014KT 10SM BKN016 19/16 A2974 RMK AO2 SLP072
T01890161





000
SAUS42 KCHS 271401 COR
MTRNBC
METAR KNBC 271356Z 23014KT 10SM BKN016 19/16 A2974 RMK AO2 SLP072
T01890161





000
SAUS42 KCHS 271319 COR
MTRNBC
SPECI KNBC 271314Z 23011KT 10SM BKN015 18/16 A2975 RMK AO2 T01830161





000
SAUS42 KCHS 271319 COR
MTRNBC
SPECI KNBC 271314Z 23011KT 10SM BKN015 18/16 A2975 RMK AO2 T01830161





000
SAUS42 KCHS 271301 COR
MTRNBC
METAR KNBC 271256Z 24013KT 10SM SCT013 BKN250 19/16 A2974 RMK AO2
SLP072 T01890161





000
SAUS42 KCHS 271201 COR
MTRNBC
METAR KNBC 271156Z 23008KT 10SM FEW014 SCT120 SCT200 17/16 A2974 RMK
AO2 SLP070 60001 70001 T01720161 10189 20172 53004





000
SAUS42 KCHS 271129 COR
MTRNBC
SPECI KNBC 271125Z 24011KT 10SM FEW014 SCT021 SCT120 18/16 A2973 RMK
AO2 T01780161





000
SAUS42 KCHS 271101 COR
MTRNBC
METAR KNBC 271056Z 25008KT 10SM OVC018 18/16 A2973 RMK AO2 SLP066
T01830161





000
SAUS42 KCHS 271101 COR
MTRNBC
METAR KNBC 271056Z 25008KT 10SM OVC018 18/16 A2973 RMK AO2 SLP066
T01830161





000
SAUS42 KCHS 271035 COR
MTRNBC
SPECI KNBC 271030Z 25008KT 10SM OVC017 18/16 A2972 RMK AO2 FIRST
T01780161





000
SAUS42 KCHS 271035 COR
MTRNBC
SPECI KNBC 271030Z 25008KT 10SM OVC017 18/16 A2972 RMK AO2 FIRST
T01780161





000
SAUS42 KCHS 271026 COR
MTRNBC
SPECI KNBC 271021Z AUTO 25008KT 10SM BKN017 18/16 A2972 RMK AO2
T01830161





000
SAUS42 KCHS 271026 COR
MTRNBC
SPECI KNBC 271021Z AUTO 25008KT 10SM BKN017 18/16 A2972 RMK AO2
T01830161





000
SAUS42 KCHS 271001 COR
MTRNBC
METAR KNBC 270956Z AUTO 25013KT 10SM BKN013 18/17 A2973 RMK AO2
SLP067 T01830167





000
SAUS42 KCHS 270956 COR
MTRNBC
SPECI KNBC 270951Z AUTO 25011KT 10SM BKN013 18/17 A2972 RMK AO2





000
SAUS42 KCHS 270919 COR
MTRNBC
SPECI KNBC 270914Z AUTO 23008KT 10SM FEW012 SCT017 18/17 A2971 RMK
AO2 T01830167





000
SAUS42 KCHS 270901 COR
MTRNBC
METAR KNBC 270856Z AUTO 25013G19KT 10SM BKN014 18/17 A2973 RMK AO2
SLP068 60001 T01830167 55014





000
SAUS42 KCHS 270841 COR
MTRNBC
SPECI KNBC 270836Z AUTO 24008KT 10SM BKN012 18/17 A2972 RMK AO2
T01830172





000
SAUS42 KCHS 270841 COR
MTRNBC
SPECI KNBC 270836Z AUTO 24008KT 10SM BKN012 18/17 A2972 RMK AO2
T01830172





000
SAUS42 KCHS 270801 COR
MTRNBC
METAR KNBC 270756Z AUTO 23007KT 9SM FEW008 FEW017 18/17 A2972 RMK
AO2 SLP065 T01830172





000
SAUS42 KCHS 270738
MTRNBC
SPECI KNBC 270735Z AUTO 23005KT 7SM FEW011 SCT019 SCT024 18/17 A2973
RMK AO2 T01830172





000
SAUS42 KCHS 270738
MTRNBC
SPECI KNBC 270735Z AUTO 23005KT 7SM FEW011 SCT019 SCT024 18/17 A2973
RMK AO2 T01830172





000
SAUS42 KCHS 270733 COR
MTRNBC
SPECI KNBC 270728Z AUTO 22005KT 8SM FEW010 SCT019 BKN024 18/17 A2973
RMK AO2 T01830172





000
SAUS42 KCHS 270733 COR
MTRNBC
SPECI KNBC 270728Z AUTO 22005KT 8SM FEW010 SCT019 BKN024 18/17 A2973
RMK AO2 T01830172





000
SAUS42 KCHS 270725 COR
MTRNBC
SPECI KNBC 270720Z AUTO 23006KT 8SM SCT008 BKN012 BKN022 18/17 A2973
RMK AO2 T01830172





000
SAUS42 KCHS 270725 COR
MTRNBC
SPECI KNBC 270720Z AUTO 23006KT 8SM SCT008 BKN012 BKN022 18/17 A2973
RMK AO2 T01830172





000
SAUS42 KCHS 270701 COR
MTRNBC
METAR KNBC 270656Z AUTO 25004KT 8SM BKN008 OVC070 18/17 A2975 RMK
AO2 RAE0557B14E41 SLP074 P0001 T01830172





000
SAUS42 KCHS 270701 COR
MTRNBC
METAR KNBC 270656Z AUTO 25004KT 8SM BKN008 OVC070 18/17 A2975 RMK
AO2 RAE0557B14E41 SLP074 P0001 T01830172





000
SAUS42 KCHS 270651 COR
MTRNBC
SPECI KNBC 270647Z AUTO 27006KT 8SM BKN010 OVC070 18/17 A2975 RMK
AO2 RAE0557B14E41 P0001 T01830172





000
SAUS42 KCHS 270651 COR
MTRNBC
SPECI KNBC 270647Z AUTO 27006KT 8SM BKN010 OVC070 18/17 A2975 RMK
AO2 RAE0557B14E41 P0001 T01830172





000
SAUS42 KCHS 270601 COR
MTRNBC
METAR KNBC 270556Z AUTO 22006KT 10SM -RA OVC009 19/17 A2977 RMK AO2
RAB44 SLP081 P0000 60000 T01890172 10206 20189 58012





000
SAUS42 KCHS 270601 COR
MTRNBC
METAR KNBC 270556Z AUTO 22006KT 10SM -RA OVC009 19/17 A2977 RMK AO2
RAB44 SLP081 P0000 60000 T01890172 10206 20189 58012





000
SAUS42 KCHS 270457
MTRNBC
METAR KNBC 270456Z AUTO 19006KT 10SM BKN009 OVC090 19/17 A2979 RMK
AO2 SLP088 T01890167 402670139





000
SAUS42 KCHS 270457
MTRNBC
METAR KNBC 270456Z AUTO 19006KT 10SM BKN009 OVC090 19/17 A2979 RMK
AO2 SLP088 T01890167 402670139





000
SAUS42 KCHS 270453
MTRNBC
SPECI KNBC 270451Z AUTO 19005KT 10SM BKN010 BKN070 OVC090 19/17
A2979 RMK AO2





000
SAUS42 KCHS 270357
MTRNBC
METAR KNBC 270356Z AUTO 16003KT 10SM FEW050 OVC085 19/16 A2981 RMK
AO2 SLP093 T01890161





000
SAUS42 KCHS 270257
MTRNBC
METAR KNBC 270256Z AUTO 19004KT 10SM FEW065 OVC100 19/16 A2982 RMK
AO2 SLP097 T01890156 56010





000
SAUS42 KCHS 270257
MTRNBC
METAR KNBC 270256Z AUTO 19004KT 10SM FEW065 OVC100 19/16 A2982 RMK
AO2 SLP097 T01890156 56010





000
SAUS42 KCHS 270157
MTRNBC
METAR KNBC 270156Z 18008KT 10SM BKN090 OVC110 19/14 A2982 RMK AO2
SLP099 T01940144





000
SAUS42 KCHS 270057
MTRNBC
METAR KNBC 270056Z 17003KT 10SM SCT030 OVC150 19/15 A2982 RMK AO2
SLP098 T01940150





000
SAUS42 KCHS 270057
MTRNBC
METAR KNBC 270056Z 17003KT 10SM SCT030 OVC150 19/15 A2982 RMK AO2
SLP098 T01940150





000
SAUS42 KCHS 262357
MTRNBC
METAR KNBC 262356Z 18006KT 10SM SCT030 OVC150 21/14 A2985 RMK AO2
SLP107 T02060139 10250 20200 56009





000
SAUS42 KCHS 262357
MTRNBC
METAR KNBC 262356Z 18006KT 10SM SCT030 OVC150 21/14 A2985 RMK AO2
SLP107 T02060139 10250 20200 56009





000
SAUS42 KCHS 262257
MTRNBC
METAR KNBC 262256Z 18008KT 10SM FEW030 BKN150 21/14 A2985 RMK AO2
SLP107 T02110144





000
SAUS42 KCHS 262257
MTRNBC
METAR KNBC 262256Z 18008KT 10SM FEW030 BKN150 21/14 A2985 RMK AO2
SLP107 T02110144





000
SAUS42 KCHS 262157
MTRNBC
METAR KNBC 262156Z 18005KT 10SM FEW025 BKN070 23/17 A2985 RMK AO2
SLP110 T02280172





000
SAUS42 KCHS 262057
MTRNBC
METAR KNBC 262056Z 19009KT 10SM SCT025 OVC070 22/15 A2987 RMK AO2
SLP115 T02220150 56025





000
SAUS42 KCHS 262057
MTRNBC
METAR KNBC 262056Z 19009KT 10SM SCT025 OVC070 22/15 A2987 RMK AO2
SLP115 T02220150 56025





000
SAUS42 KCHS 261957
MTRNBC
METAR KNBC 261956Z 18008KT 10SM SCT025 OVC070 22/16 A2989 RMK AO2
SLP122 T02170161





000
SAUS42 KCHS 261857
MTRNBC
METAR KNBC 261856Z 15008KT 10SM SCT025 OVC070 23/17 A2991 RMK AO2
SLP129 T02280172





000
SAUS42 KCHS 261857
MTRNBC
METAR KNBC 261856Z 15008KT 10SM SCT025 OVC070 23/17 A2991 RMK AO2
SLP129 T02280172





000
SAUS42 KCHS 261757
MTRNBC
METAR KNBC 261756Z 22010KT 10SM SCT045 BKN060 25/14 A2994 RMK AO2
SLP140 T02500144 10267 20156 56023





000
SAUS42 KCHS 261757
MTRNBC
METAR KNBC 261756Z 22010KT 10SM SCT045 BKN060 25/14 A2994 RMK AO2
SLP140 T02500144 10267 20156 56023





000
SAUS42 KCHS 261658
MTRNBC
METAR KNBC 261656Z 23007KT 10SM SCT040 SCT050 BKN065 BKN250 26/16
A2996 RMK AO2 SLP144 T02560156





000
SAUS42 KCHS 261658
MTRNBC
METAR KNBC 261656Z 23007KT 10SM SCT040 SCT050 BKN065 BKN250 26/16
A2996 RMK AO2 SLP144 T02560156





000
SAUS42 KCHS 261557
MTRNBC
METAR KNBC 261556Z 20007KT 10SM FEW028 OVC065 24/17 A2999 RMK AO2
SLP155 T02440172





000
SAUS42 KCHS 261457
MTRNBC
METAR KNBC 261456Z 22011KT 10SM BKN070 21/17 A3001 RMK AO2 SLP163
T02110167 58006





000
SAUS42 KCHS 261457
MTRNBC
METAR KNBC 261456Z 22011KT 10SM BKN070 21/17 A3001 RMK AO2 SLP163
T02110167 58006





000
SAUS42 KCHS 261357
MTRNBC
METAR KNBC 261356Z 22006KT 10SM FEW006 BKN070 19/17 A3003 RMK AO2
SLP168 T01890172





000
SAUS42 KCHS 261357
MTRNBC
METAR KNBC 261356Z 22006KT 10SM FEW006 BKN070 19/17 A3003 RMK AO2
SLP168 T01890172





000
SAUS42 KCHS 261306
MTRNBC
SPECI KNBC 261305Z 24004KT 5SM BR FEW003 SCT013 OVC070 17/16 A3003
RMK AO2 T01670161





000
SAUS42 KCHS 261258
MTRNBC
METAR KNBC 261256Z 23004KT 4SM BR BKN002 OVC070 17/16 A3003 RMK AO2
SLP169 T01670161





000
SAUS42 KCHS 261258
MTRNBC
METAR KNBC 261256Z 23004KT 4SM BR BKN002 OVC070 17/16 A3003 RMK AO2
SLP169 T01670161





000
SAUS42 KCHS 261157
MTRNBC
METAR KNBC 261156Z 24005KT 1/2SM FG OVC002 16/16 A3002 RMK AO2
SLP167 70005 T01560156 10156 20139 53001





000
SAUS42 KCHS 261157
MTRNBC
METAR KNBC 261156Z 24005KT 1/2SM FG OVC002 16/16 A3002 RMK AO2
SLP167 70005 T01560156 10156 20139 53001





000
SAUS42 KCHS 261129
MTRNBC
SPECI KNBC 261128Z 24005KT 1/2SM FG OVC002 16/16 A3002 RMK AO2
T01560156





000
SAUS42 KCHS 261129
MTRNBC
SPECI KNBC 261128Z 24005KT 1/2SM FG OVC002 16/16 A3002 RMK AO2
T01560156





000
SAUS42 KCHS 261123
MTRNBC
SPECI KNBC 261122Z 24005KT 1 1/4SM BR OVC002 16/16 A3003 RMK AO2
T01560156





000
SAUS42 KCHS 261057
MTRNBC
METAR KNBC 261056Z 24006KT 1SM BR OVC002 16/16 A3002 RMK AO2 SLP166
T01560156





000
SAUS42 KCHS 261057
MTRNBC
METAR KNBC 261056Z 24006KT 1SM BR OVC002 16/16 A3002 RMK AO2 SLP166
T01560156





000
SAUS42 KCHS 261041
MTRNBC
SPECI KNBC 261040Z 25005KT 1SM BR OVC002 16/15 A3002 RMK AO2
T01560150





000
SAUS42 KCHS 261041
MTRNBC
SPECI KNBC 261040Z 25005KT 1SM BR OVC002 16/15 A3002 RMK AO2
T01560150





000
SAUS42 KCHS 261032
MTRNBC
SPECI KNBC 261031Z 24006KT 1 1/4SM BR OVC002 16/15 A3002 RMK AO2
FIRST T01560150





000
SAUS42 KCHS 261032
MTRNBC
SPECI KNBC 261031Z 24006KT 1 1/4SM BR OVC002 16/15 A3002 RMK AO2
FIRST T01560150





000
SAUS42 KCHS 260957
MTRNBC
METAR KNBC 260956Z AUTO 25006KT 1 1/4SM BR OVC002 15/15 A3002 RMK
AO2 SLP166 T01500150 $





000
SAUS42 KCHS 260947
MTRNBC
SPECI KNBC 260945Z AUTO 25006KT 1 1/2SM BR OVC002 15/15 A3002 RMK
AO2 T01500150 $





000
SAUS42 KCHS 260947
MTRNBC
SPECI KNBC 260945Z AUTO 25006KT 1 1/2SM BR OVC002 15/15 A3002 RMK
AO2 T01500150 $





000
SAUS42 KCHS 260939
MTRNBC
SPECI KNBC 260938Z AUTO 25006KT 1 3/4SM BR OVC002 15/15 A3002 RMK
AO2 T01500150 $





000
SAUS42 KCHS 260908
MTRNBC
SPECI KNBC 260907Z AUTO 25005KT 1 1/4SM BR OVC002 15/15 A3002 RMK
AO2 T01500150 $





000
SAUS42 KCHS 260858
MTRNBC
METAR KNBC 260856Z AUTO 25007KT 1SM BR VV002 15/15 A3002 RMK AO2
SLP166 T01500150 58009 $





000
SAUS42 KCHS 260858
MTRNBC
METAR KNBC 260856Z AUTO 25007KT 1SM BR VV002 15/15 A3002 RMK AO2
SLP166 T01500150 58009 $





000
SAUS42 KCHS 260853
MTRNBC
SPECI KNBC 260852Z AUTO 26005KT 3/4SM BR VV002 15/15 A3002 RMK AO2 $





000
SAUS42 KCHS 260853
MTRNBC
SPECI KNBC 260852Z AUTO 26005KT 3/4SM BR VV002 15/15 A3002 RMK AO2 $





000
SAUS42 KCHS 260839
MTRNBC
SPECI KNBC 260837Z AUTO 25005KT 1/4SM FG VV002 15/15 A3002 RMK AO2
T01500150 $





000
SAUS42 KCHS 260839
MTRNBC
SPECI KNBC 260837Z AUTO 25005KT 1/4SM FG VV002 15/15 A3002 RMK AO2
T01500150 $





000
SAUS42 KCHS 260822
MTRNBC
SPECI KNBC 260821Z AUTO 24006KT 1/2SM FG VV002 15/15 A3002 RMK AO2
T01500150 $





000
SAUS42 KCHS 260822
MTRNBC
SPECI KNBC 260821Z AUTO 24006KT 1/2SM FG VV002 15/15 A3002 RMK AO2
T01500150 $





000
SAUS42 KCHS 260758
MTRNBC
METAR KNBC 260756Z AUTO 25004KT 1/4SM FG VV002 16/15 A3003 RMK AO2
SLP169 T01560150 $





000
SAUS42 KCHS 260704
MTRNBC
SPECI KNBC 260703Z AUTO 00000KT 1/4SM FG VV002 15/15 A3005 RMK AO2
T01500150 $





000
SAUS42 KCHS 260704
MTRNBC
SPECI KNBC 260703Z AUTO 00000KT 1/4SM FG VV002 15/15 A3005 RMK AO2
T01500150 $





000
SAUS42 KCHS 260657
MTRNBC
METAR KNBC 260656Z AUTO 26003KT 1/4SM FG BKN001 OVC005 15/15 A3005
RMK AO2 SLP175 T01500150 $





000
SAUS42 KCHS 260655
MTRNBC
SPECI KNBC 260654Z AUTO 26003KT 1/4SM FG VV003 15/14 A3005 RMK AO2 $





000
SAUS42 KCHS 260655
MTRNBC
SPECI KNBC 260654Z AUTO 26003KT 1/4SM FG VV003 15/14 A3005 RMK AO2 $





000
SAUS42 KCHS 260647
MTRNBC
SPECI KNBC 260645Z AUTO 27004KT 1/2SM FG VV003 14/14 A3005 RMK AO2
T01440139 $





000
SAUS42 KCHS 260647
MTRNBC
SPECI KNBC 260645Z AUTO 27004KT 1/2SM FG VV003 14/14 A3005 RMK AO2
T01440139 $





000
SAUS42 KCHS 260642
MTRNBC
SPECI KNBC 260641Z AUTO 27003KT 1 1/2SM BR BKN005 14/14 A3005 RMK
AO2 T01440139 $





000
SAUS42 KCHS 260639
MTRNBC
SPECI KNBC 260637Z AUTO 00000KT 3SM BR BKN005 14/14 A3005 RMK AO2
T01440139 $





000
SAUS42 KCHS 260639
MTRNBC
SPECI KNBC 260637Z AUTO 00000KT 3SM BR BKN005 14/14 A3005 RMK AO2
T01440139 $





000
SAUS42 KCHS 260624
MTRNBC
SPECI KNBC 260623Z AUTO 00000KT 2SM BR FEW004 14/14 A3006 RMK AO2
T01440139 $





000
SAUS42 KCHS 260624
MTRNBC
SPECI KNBC 260623Z AUTO 00000KT 2SM BR FEW004 14/14 A3006 RMK AO2
T01440139 $





000
SAUS42 KCHS 260618
MTRNBC
SPECI KNBC 260617Z AUTO 00000KT 1SM BR VV004 14/14 A3006 RMK AO2
T01440139 $





000
SAUS42 KCHS 260613
MTRNBC
SPECI KNBC 260612Z AUTO 00000KT 2SM BR FEW004 14/14 A3006 RMK AO2
VIS 3/4V5 T01440139 $





000
SAUS42 KCHS 260613
MTRNBC
SPECI KNBC 260612Z AUTO 00000KT 2SM BR FEW004 14/14 A3006 RMK AO2
VIS 3/4V5 T01440139 $





000
SAUS42 KCHS 260557
MTRNBC
METAR KNBC 260556Z AUTO 00000KT 7SM CLR 15/14 A3007 RMK AO2 SLP181
T01500144 10183 20144 58012 $





000
SAUS42 KCHS 260557
MTRNBC
METAR KNBC 260556Z AUTO 00000KT 7SM CLR 15/14 A3007 RMK AO2 SLP181
T01500144 10183 20144 58012 $





000
SAUS42 KCHS 260458
MTRNBC
METAR KNBC 260456Z AUTO 20004KT 8SM CLR 16/16 A3008 RMK AO2 SLP186
T01610156 402330161 $





000
SAUS42 KCHS 260357
MTRNBC
METAR KNBC 260356Z AUTO 16003KT 8SM FEW003 17/16 A3009 RMK AO2
SLP190 T01670156 $





000
SAUS42 KCHS 260349
MTRNBC
SPECI KNBC 260348Z AUTO 15004KT 9SM FEW003 17/16 A3010 RMK AO2
T01670161 $





000
SAUS42 KCHS 260349
MTRNBC
SPECI KNBC 260348Z AUTO 15004KT 9SM FEW003 17/16 A3010 RMK AO2
T01670161 $





000
SAUS42 KCHS 260258
MTRNBC
METAR KNBC 260256Z 12004KT 9SM CLR 16/16 A3010 RMK AO2 SLP193
T01610156 58004 $





000
SAUS42 KCHS 260157
MTRNBC
METAR KNBC 260156Z 00000KT 10SM FEW009 16/16 A3011 RMK AO2 SLP196
T01610156 $





000
SAUS42 KCHS 260130
MTRNBC
SPECI KNBC 260129Z 14005KT 10SM SCT007 17/16 A3011 RMK AO2 T01720156
$





000
SAUS42 KCHS 260130
MTRNBC
SPECI KNBC 260129Z 14005KT 10SM SCT007 17/16 A3011 RMK AO2 T01720156
$





000
SAUS42 KCHS 260057
MTRNBC
METAR KNBC 260056Z 13005KT 10SM OVC007 17/16 A3011 RMK AO2 SLP196
T01720161 $





000
SAUS42 KCHS 260019
MTRNBC
SPECI KNBC 260017Z 14006KT 10SM OVC009 18/17 A3011 RMK AO2 CIG
007V012 T01830167 $





000
SAUS42 KCHS 260019
MTRNBC
SPECI KNBC 260017Z 14006KT 10SM OVC009 18/17 A3011 RMK AO2 CIG
007V012 T01830167 $





000
SAUS42 KCHS 260007
MTRNBC
SPECI KNBC 260006Z 15003KT 10SM BKN010 18/17 A3011 RMK AO2 CIG
008V012 T01830167 $





000
SAUS42 KCHS 252357
MTRNBC
METAR KNBC 252356Z 14005KT 10SM FEW055 18/17 A3011 RMK AO2 SLP197
T01830167 10233 20183 53002 $





000
SAUS42 KCHS 252357
MTRNBC
METAR KNBC 252356Z 14005KT 10SM FEW055 18/17 A3011 RMK AO2 SLP197
T01830167 10233 20183 53002 $





000
SAUS42 KCHS 252257
MTRNBC
METAR KNBC 252256Z 17004KT 10SM FEW055 21/17 A3011 RMK AO2 SLP196
T02060172 $





000
SAUS42 KCHS 252257
MTRNBC
METAR KNBC 252256Z 17004KT 10SM FEW055 21/17 A3011 RMK AO2 SLP196
T02060172 $





000
SAUS42 KCHS 252158
MTRNBC
METAR KNBC 252156Z 17006KT 10SM FEW055 22/18 A3010 RMK AO2 SLP194
T02220178 $





000
SAUS42 KCHS 252057
MTRNBC
METAR KNBC 252056Z 17004KT 10SM CLR 23/19 A3011 RMK AO2 SLP196
T02330189 56013 $





000
SAUS42 KCHS 251957
MTRNBC
METAR KNBC 251956Z 17005KT 10SM SCT015 23/19 A3011 RMK AO2 SLP197
T02330189





000
SAUS42 KCHS 251957
MTRNBC
METAR KNBC 251956Z 17005KT 10SM SCT015 23/19 A3011 RMK AO2 SLP197
T02330189





000
SAUS42 KCHS 251930
MTRNBC
SPECI KNBC 251929Z 16005KT 10SM SCT015 23/19 A3011 RMK AO2 T02330189





000
SAUS42 KCHS 251857
MTRNBC
METAR KNBC 251856Z 13008KT 10SM OVC015 22/18 A3012 RMK AO2 SLP201
T02220183





000
SAUS42 KCHS 251857
MTRNBC
METAR KNBC 251856Z 13008KT 10SM OVC015 22/18 A3012 RMK AO2 SLP201
T02220183





000
SAUS42 KCHS 251757
MTRNBC
METAR KNBC 251756Z 13011KT 10SM BKN017 22/18 A3014 RMK AO2 SLP208
60005 T02170183 10217 20178 58004





000
SAUS42 KCHS 251757
MTRNBC
METAR KNBC 251756Z 13011KT 10SM BKN017 22/18 A3014 RMK AO2 SLP208
60005 T02170183 10217 20178 58004





000
SAUS42 KCHS 251721
MTRNBC
SPECI KNBC 251720Z 12015KT 10SM BKN015 BKN021 OVC033 22/18 A3015 RMK
AO2 T02170183





000
SAUS42 KCHS 251721
MTRNBC
SPECI KNBC 251720Z 12015KT 10SM BKN015 BKN021 OVC033 22/18 A3015 RMK
AO2 T02170183





000
SAUS42 KCHS 251658
MTRNBC
METAR KNBC 251656Z 12014KT 10SM BKN011 BKN017 OVC028 21/18 A3016 RMK
AO2 SLP212 T02110178





000
SAUS42 KCHS 251658
MTRNBC
METAR KNBC 251656Z 12014KT 10SM BKN011 BKN017 OVC028 21/18 A3016 RMK
AO2 SLP212 T02110178





000
SAUS42 KCHS 251557
MTRNBC
METAR KNBC 251556Z 10011KT 10SM BKN010 OVC016 21/18 A3016 RMK AO2
SLP214 T02060183





000
SAUS42 KCHS 251557
MTRNBC
METAR KNBC 251556Z 10011KT 10SM BKN010 OVC016 21/18 A3016 RMK AO2
SLP214 T02060183





000
SAUS42 KCHS 251532
MTRNBC
SPECI KNBC 251530Z 09009KT 7SM BKN012 OVC024 20/18 A3016 RMK AO2
T02000178





000
SAUS42 KCHS 251532
MTRNBC
SPECI KNBC 251530Z 09009KT 7SM BKN012 OVC024 20/18 A3016 RMK AO2
T02000178





000
SAUS42 KCHS 251458
MTRNBC
METAR KNBC 251456Z 08009KT 6SM BR OVC008 19/18 A3016 RMK AO2 CIG
006V010 SLP212 60005 T01940178 50013





000
SAUS42 KCHS 251437
MTRNBC
SPECI KNBC 251435Z 07007KT 6SM BR OVC009 19/17 A3015 RMK AO2 CIG
006V012 T01890172





000
SAUS42 KCHS 251437
MTRNBC
SPECI KNBC 251435Z 07007KT 6SM BR OVC009 19/17 A3015 RMK AO2 CIG
006V012 T01890172





000
SAUS42 KCHS 251426
MTRNBC
SPECI KNBC 251425Z 08009KT 6SM BR BKN010 OVC013 18/17 A3015 RMK AO2
CIG 007V012 T01830172





000
SAUS42 KCHS 251426
MTRNBC
SPECI KNBC 251425Z 08009KT 6SM BR BKN010 OVC013 18/17 A3015 RMK AO2
CIG 007V012 T01830172





000
SAUS42 KCHS 251358
MTRNBC
METAR KNBC 251356Z 07008KT 6SM BR OVC008 18/17 A3016 RMK AO2 CIG
004V011 SLP213 T01780167





000
SAUS42 KCHS 251358
MTRNBC
METAR KNBC 251356Z 07008KT 6SM BR OVC008 18/17 A3016 RMK AO2 CIG
004V011 SLP213 T01780167





000
SAUS42 KCHS 251257
MTRNBC
METAR KNBC 251256Z 08010G17KT 9SM BKN008 BKN012 OVC043 18/17 A3014
RMK AO2 RAE28 SLP206 P0005 T01780167





000
SAUS42 KCHS 251257
MTRNBC
METAR KNBC 251256Z 08010G17KT 9SM BKN008 BKN012 OVC043 18/17 A3014
RMK AO2 RAE28 SLP206 P0005 T01780167





000
SAUS42 KCHS 251229
MTRNBC
SPECI KNBC 251220Z COR 10009KT 4SM -RA BR BKN008 OVC012 18/17 A3013
RMK AO2 CIG 005V012 P0005 T01780167





000
SAUS42 KCHS 251229
MTRNBC
SPECI KNBC 251220Z COR 10009KT 4SM -RA BR BKN008 OVC012 18/17 A3013
RMK AO2 CIG 005V012 P0005 T01780167





000
SAUS42 KCHS 251222
MTRNBC
SPECI KNBC 251220Z 10009KT 2SM -RA BR OVC008 18/17 A3013 RMK AO2 CIG
005V012 P0005 T01780167





000
SAUS42 KCHS 251222
MTRNBC
SPECI KNBC 251220Z 10009KT 2SM -RA BR OVC008 18/17 A3013 RMK AO2 CIG
005V012 P0005 T01780167





000
SAUS42 KCHS 251211
MTRNBC
SPECI KNBC 251209Z 08010G16KT 1 1/4SM -RA BR BKN008 OVC014 18/17
A3012 RMK AO2 CIG 005V011 P0004 T01780167





000
SAUS42 KCHS 251211
MTRNBC
SPECI KNBC 251209Z 08010G16KT 1 1/4SM -RA BR BKN008 OVC014 18/17
A3012 RMK AO2 CIG 005V011 P0004 T01780167





000
SAUS42 KCHS 251204
MTRNBC
SPECI KNBC 251202Z 08010G16KT 1SM RA BR FEW008 OVC014 18/17 A3012
RMK AO2 P0002 T01780167





000
SAUS42 KCHS 251204
MTRNBC
SPECI KNBC 251202Z 08010G16KT 1SM RA BR FEW008 OVC014 18/17 A3012
RMK AO2 P0002 T01780167





000
SAUS42 KCHS 251158
MTRNBC
METAR KNBC 251156Z 09010KT 1 1/4SM -RA BR FEW010 OVC016 18/17 A3012
RMK AO2 SLP199 P0003 60007 70007 T01780167 10178 20172 50005





000
SAUS42 KCHS 251158
MTRNBC
METAR KNBC 251156Z 09010KT 1 1/4SM -RA BR FEW010 OVC016 18/17 A3012
RMK AO2 SLP199 P0003 60007 70007 T01780167 10178 20172 50005





000
SAUS42 KCHS 251153
MTRNBC
SPECI KNBC 251152Z 08008KT 1 1/2SM -RA BR FEW010 OVC016 18/17 A3012
RMK AO2 P0002





000
SAUS42 KCHS 251153
MTRNBC
SPECI KNBC 251152Z 08008KT 1 1/2SM -RA BR FEW010 OVC016 18/17 A3012
RMK AO2 P0002





000
SAUS42 KCHS 251146
MTRNBC
SPECI KNBC 251145Z 09007KT 2SM -RA BR BKN015 BKN022 OVC026 18/17
A3012 RMK AO2 P0002 T01780167





000
SAUS42 KCHS 251146
MTRNBC
SPECI KNBC 251145Z 09007KT 2SM -RA BR BKN015 BKN022 OVC026 18/17
A3012 RMK AO2 P0002 T01780167





000
SAUS42 KCHS 251124
MTRNBC
SPECI KNBC 251123Z 08008KT 3SM -RA BR OVC024 18/17 A3012 RMK AO2
P0001 T01780167





000
SAUS42 KCHS 251058
MTRNBC
METAR KNBC 251056Z 08009KT 2SM -RA BR FEW008 OVC026 17/17 A3012 RMK
AO2 RAE02B23 SLP199 P0003 T01720167





000
SAUS42 KCHS 251058
MTRNBC
METAR KNBC 251056Z 08009KT 2SM -RA BR FEW008 OVC026 17/17 A3012 RMK
AO2 RAE02B23 SLP199 P0003 T01720167





000
SAUS42 KCHS 251038
MTRNBC
SPECI KNBC 251036Z 08006KT 2 1/2SM -RA BR FEW011 BKN028 OVC055 17/16
A3012 RMK AO2 RAE02B23 FIRST P0001 T01720161





000
SAUS42 KCHS 251032
MTRNBC
SPECI KNBC 251031Z 08006KT 3SM -RA BR FEW026 BKN035 OVC060 17/16
A3011 RMK AO2 RAE02B23 FIRST P0001 T01720161





000
SAUS42 KCHS 251032
MTRNBC
SPECI KNBC 251031Z 08006KT 3SM -RA BR FEW026 BKN035 OVC060 17/16
A3011 RMK AO2 RAE02B23 FIRST P0001 T01720161





000
SAUS42 KCHS 250957
MTRNBC
METAR KNBC 250956Z AUTO 07007KT 3SM -RA BR BKN036 OVC045 17/16 A3011
RMK AO2 RAB14 SLP196 P0001 T01720161





000
SAUS42 KCHS 250936
MTRNBC
SPECI KNBC 250934Z AUTO 05008KT 3SM -RA BR SCT025 BKN030 OVC042
17/16 A3011 RMK AO2 RAB14 P0000 T01720156





000
SAUS42 KCHS 250857
MTRNBC
METAR KNBC 250856Z AUTO 05009KT 10SM BKN028 OVC046 18/16 A3010 RMK
AO2 RAB33E47 SLP193 P0000 60000 T01780156 55009





000
SAUS42 KCHS 250831
MTRNBC
SPECI KNBC 250830Z AUTO 05007KT 8SM BKN026 BKN032 OVC050 18/16 A3010
RMK AO2 T01780156





000
SAUS42 KCHS 250831
MTRNBC
SPECI KNBC 250830Z AUTO 05007KT 8SM BKN026 BKN032 OVC050 18/16 A3010
RMK AO2 T01780156





000
SAUS42 KCHS 250757
MTRNBC
METAR KNBC 250756Z AUTO 06006KT 10SM FEW026 BKN033 OVC055 17/15
A3010 RMK AO2 SLP192 T01720150





000
SAUS42 KCHS 250657
MTRNBC
METAR KNBC 250656Z AUTO 06007KT 10SM BKN060 OVC075 17/15 A3011 RMK
AO2 SLP197 T01720150





000
SAUS42 KCHS 250657
MTRNBC
METAR KNBC 250656Z AUTO 06007KT 10SM BKN060 OVC075 17/15 A3011 RMK
AO2 SLP197 T01720150





000
SAUS42 KCHS 250557
MTRNBC
METAR KNBC 250556Z AUTO 05009KT 10SM OVC065 17/14 A3013 RMK AO2
SLP202 T01720144 10178 20167 55007





000
SAUS42 KCHS 250557
MTRNBC
METAR KNBC 250556Z AUTO 05009KT 10SM OVC065 17/14 A3013 RMK AO2
SLP202 T01720144 10178 20167 55007





000
SAUS42 KCHS 250500
MTRNBC
METAR KNBC 250456Z 06007KT 10SM OVC065 17/14 A3013 RMK AO2 SLP202
T01720144 402000111





000
SAUS42 KCHS 250500
MTRNBC
METAR KNBC 250456Z 06007KT 10SM OVC065 17/14 A3013 RMK AO2 SLP202
T01720144 402000111





000
SAUS42 KCHS 250357
MTRNBC
METAR KNBC 250356Z 05008KT 10SM OVC070 17/14 A3014 RMK AO2 SLP206
T01670144





000
SAUS42 KCHS 250257
MTRNBC
METAR KNBC 250256Z 05007KT 10SM BKN070 BKN080 OVC100 17/14 A3015 RMK
AO2 SLP210 T01670139 51005





000
SAUS42 KCHS 250257
MTRNBC
METAR KNBC 250256Z 05007KT 10SM BKN070 BKN080 OVC100 17/14 A3015 RMK
AO2 SLP210 T01670139 51005





000
SAUS42 KCHS 250157
MTRNBC
METAR KNBC 250156Z 06006KT 10SM OVC075 17/14 A3015 RMK AO2 SLP209
T01720139





000
SAUS42 KCHS 250157
MTRNBC
METAR KNBC 250156Z 06006KT 10SM OVC075 17/14 A3015 RMK AO2 SLP209
T01720139





000
SAUS42 KCHS 250057
MTRNBC
METAR KNBC 250056Z 06005KT 10SM SCT055 OVC085 17/14 A3014 RMK AO2
SLP207 T01720144





000
SAUS42 KCHS 250057
MTRNBC
METAR KNBC 250056Z 06005KT 10SM SCT055 OVC085 17/14 A3014 RMK AO2
SLP207 T01720144





000
SAUS42 KCHS 242358
MTRNBC
METAR KNBC 242356Z 01005KT 10SM OVC048 17/16 A3013 RMK AO2 SLP204
60000 T01720156 10189 20172 58000





000
SAUS42 KCHS 242358
MTRNBC
METAR KNBC 242356Z 01005KT 10SM OVC048 17/16 A3013 RMK AO2 SLP204
60000 T01720156 10189 20172 58000





000
SAUS42 KCHS 242257
MTRNBC
METAR KNBC 242256Z 11006KT 10SM SCT016 OVC045 18/15 A3014 RMK AO2
SLP207 T01780150





000
SAUS42 KCHS 242257
MTRNBC
METAR KNBC 242256Z 11006KT 10SM SCT016 OVC045 18/15 A3014 RMK AO2
SLP207 T01780150





000
SAUS42 KCHS 242157
MTRNBC
METAR KNBC 242156Z 09006KT 10SM BKN017 OVC065 18/15 A3014 RMK AO2
SLP205 T01830150





000
SAUS42 KCHS 242152
MTRNBC
SPECI KNBC 242151Z 07005KT 10SM BKN017 OVC070 18/15 A3013 RMK AO2





000
SAUS42 KCHS 242152
MTRNBC
SPECI KNBC 242151Z 07005KT 10SM BKN017 OVC070 18/15 A3013 RMK AO2





000
SAUS42 KCHS 242113
MTRNBC
SPECI KNBC 242112Z 06006KT 10SM FEW011 SCT020 OVC070 18/15 A3013 RMK
AO2 T01830150





000
SAUS42 KCHS 242057
MTRNBC
METAR KNBC 242056Z 08007KT 10SM FEW011 BKN020 OVC075 18/16 A3014 RMK
AO2 RAE56 SLP205 P0000 60000 T01830156 58003





000
SAUS42 KCHS 241957
MTRNBC
METAR KNBC 241956Z AUTO 10SM -RA BR OVC024 19/14 A3014 RMK AO2
SLP207 P0000 T01890144 $





000
SAUS42 KCHS 241858
MTRNBC
METAR KNBC 241856Z AUTO 13005KT 6SM -RA BR OVC025 18/14 A3014 RMK
AO2 RAB31 SLP207 P0000 T01830139





000
SAUS42 KCHS 241858
MTRNBC
METAR KNBC 241856Z AUTO 13005KT 6SM -RA BR OVC025 18/14 A3014 RMK
AO2 RAB31 SLP207 P0000 T01830139





    US Dept of Commerce
    National Oceanic and Atmospheric Administration
    National Weather Service
    1325 East West Highway
    Silver Spring, MD 20910
    Page Author: NWS Internet Services Team
Disclaimer
Information Quality
Credits
Glossary
Privacy Policy
Freedom of Information Act (FOIA)
About Us
Career Opportunities